Terminal Aerodrome Forecast
Issued by NWS

Home | Current Version | Previous Version | Text Only | Print | Product List | Glossary On
Versions: 1 2 3 4 5 6 7 8 9 10 11 12 13 14
000
FTUS46 KLOX 240357 AAA
TAFPMD
TAF AMD
KPMD 240357Z 2404/2424 23010KT P6SM SCT250
     FM240700 21007KT P6SM SCT250
     FM242100 23014G22KT P6SM SCT250=

USA.gov is the U.S. government's official web portal to all federal, state and local government web resources and services.